sensor_id;sensor_type;location;lat;lon;timestamp;P1;durP1;ratioP1;P2;durP2;ratioP2
54545;SDS011;40444;45.184;9.850;2022-07-24T00:00:03;7.78;;;6.97;;
54545;SDS011;40444;45.184;9.850;2022-07-24T00:02:38;8.13;;;6.82;;
54545;SDS011;40444;45.184;9.850;2022-07-24T00:05:07;7.68;;;6.88;;
54545;SDS011;40444;45.184;9.850;2022-07-24T00:07:36;8.15;;;7.35;;
54545;SDS011;40444;45.184;9.850;2022-07-24T00:10:05;9.23;;;7.32;;
54545;SDS011;40444;45.184;9.850;2022-07-24T00:12:34;8.18;;;7.35;;
54545;SDS011;40444;45.184;9.850;2022-07-24T00:15:03;8.50;;;7.18;;
54545;SDS011;40444;45.184;9.850;2022-07-24T00:17:32;8.57;;;7.35;;
54545;SDS011;40444;45.184;9.850;2022-07-24T00:20:00;8.95;;;7.47;;
54545;SDS011;40444;45.184;9.850;2022-07-24T00:22:29;12.25;;;7.70;;
54545;SDS011;40444;45.184;9.850;2022-07-24T00:24:58;8.48;;;7.55;;
54545;SDS011;40444;45.184;9.850;2022-07-24T00:27:26;8.65;;;7.28;;
54545;SDS011;40444;45.184;9.850;2022-07-24T00:29:55;8.25;;;7.45;;
54545;SDS011;40444;45.184;9.850;2022-07-24T00:32:24;8.88;;;7.80;;
54545;SDS011;40444;45.184;9.850;2022-07-24T00:34:52;9.27;;;7.75;;
54545;SDS011;40444;45.184;9.850;2022-07-24T00:37:20;8.68;;;7.55;;
54545;SDS011;40444;45.184;9.850;2022-07-24T00:39:48;10.25;;;7.90;;
54545;SDS011;40444;45.184;9.850;2022-07-24T00:42:17;8.48;;;7.57;;
54545;SDS011;40444;45.184;9.850;2022-07-24T00:44:46;8.30;;;7.40;;
54545;SDS011;40444;45.184;9.850;2022-07-24T00:47:15;8.00;;;7.20;;
54545;SDS011;40444;45.184;9.850;2022-07-24T00:49:44;9.75;;;6.93;;
54545;SDS011;40444;45.184;9.850;2022-07-24T00:52:12;10.07;;;7.18;;
54545;SDS011;40444;45.184;9.850;2022-07-24T00:54:41;8.55;;;7.65;;
54545;SDS011;40444;45.184;9.850;2022-07-24T00:57:09;8.45;;;7.63;;
54545;SDS011;40444;45.184;9.850;2022-07-24T00:59:38;9.68;;;8.27;;
54545;SDS011;40444;45.184;9.850;2022-07-24T01:02:06;8.50;;;7.60;;
54545;SDS011;40444;45.184;9.850;2022-07-24T01:04:35;9.13;;;8.15;;
54545;SDS011;40444;45.184;9.850;2022-07-24T01:07:04;10.25;;;8.82;;
54545;SDS011;40444;45.184;9.850;2022-07-24T01:09:33;11.20;;;10.07;;
54545;SDS011;40444;45.184;9.850;2022-07-24T01:12:02;11.07;;;10.02;;
54545;SDS011;40444;45.184;9.850;2022-07-24T01:14:32;12.32;;;11.10;;
54545;SDS011;40444;45.184;9.850;2022-07-24T01:17:01;12.82;;;11.63;;
54545;SDS011;40444;45.184;9.850;2022-07-24T01:19:30;11.65;;;10.45;;
54545;SDS011;40444;45.184;9.850;2022-07-24T01:21:58;13.07;;;11.68;;
54545;SDS011;40444;45.184;9.850;2022-07-24T01:24:26;11.85;;;10.75;;
54545;SDS011;40444;45.184;9.850;2022-07-24T01:26:55;13.18;;;11.70;;
54545;SDS011;40444;45.184;9.850;2022-07-24T01:29:23;13.00;;;11.63;;
54545;SDS011;40444;45.184;9.850;2022-07-24T01:31:52;12.05;;;10.85;;
54545;SDS011;40444;45.184;9.850;2022-07-24T01:34:21;12.02;;;10.93;;
54545;SDS011;40444;45.184;9.850;2022-07-24T01:36:49;13.25;;;11.80;;
54545;SDS011;40444;45.184;9.850;2022-07-24T01:39:17;11.35;;;10.18;;
54545;SDS011;40444;45.184;9.850;2022-07-24T01:41:46;11.50;;;10.23;;
54545;SDS011;40444;45.184;9.850;2022-07-24T01:44:15;10.82;;;9.82;;
54545;SDS011;40444;45.184;9.850;2022-07-24T01:46:44;12.57;;;11.23;;
54545;SDS011;40444;45.184;9.850;2022-07-24T01:49:13;12.32;;;11.02;;
54545;SDS011;40444;45.184;9.850;2022-07-24T01:51:47;12.07;;;10.77;;
54545;SDS011;40444;45.184;9.850;2022-07-24T01:54:16;11.90;;;10.60;;
54545;SDS011;40444;45.184;9.850;2022-07-24T01:56:45;12.43;;;11.13;;
54545;SDS011;40444;45.184;9.850;2022-07-24T01:59:13;12.38;;;11.07;;
54545;SDS011;40444;45.184;9.850;2022-07-24T02:01:42;13.45;;;12.15;;
54545;SDS011;40444;45.184;9.850;2022-07-24T02:04:11;12.82;;;11.63;;
54545;SDS011;40444;45.184;9.850;2022-07-24T02:06:40;12.75;;;11.55;;
54545;SDS011;40444;45.184;9.850;2022-07-24T02:09:08;12.55;;;11.35;;
54545;SDS011;40444;45.184;9.850;2022-07-24T02:11:37;12.55;;;11.20;;
54545;SDS011;40444;45.184;9.850;2022-07-24T02:14:06;13.15;;;11.82;;
54545;SDS011;40444;45.184;9.850;2022-07-24T02:16:34;13.63;;;12.32;;
54545;SDS011;40444;45.184;9.850;2022-07-24T02:19:03;12.80;;;11.70;;
54545;SDS011;40444;45.184;9.850;2022-07-24T02:21:33;13.25;;;12.05;;
54545;SDS011;40444;45.184;9.850;2022-07-24T02:24:01;14.75;;;12.48;;
54545;SDS011;40444;45.184;9.850;2022-07-24T02:26:30;14.85;;;12.02;;
54545;SDS011;40444;45.184;9.850;2022-07-24T02:29:01;13.85;;;12.50;;
54545;SDS011;40444;45.184;9.850;2022-07-24T02:31:30;13.48;;;11.95;;
54545;SDS011;40444;45.184;9.850;2022-07-24T02:33:58;11.80;;;10.80;;
54545;SDS011;40444;45.184;9.850;2022-07-24T02:36:27;13.70;;;10.95;;
54545;SDS011;40444;45.184;9.850;2022-07-24T02:38:55;11.80;;;10.60;;
54545;SDS011;40444;45.184;9.850;2022-07-24T02:41:24;12.25;;;10.60;;
54545;SDS011;40444;45.184;9.850;2022-07-24T02:43:53;12.40;;;11.25;;
54545;SDS011;40444;45.184;9.850;2022-07-24T02:46:21;12.23;;;10.90;;
54545;SDS011;40444;45.184;9.850;2022-07-24T02:48:50;14.60;;;11.13;;
54545;SDS011;40444;45.184;9.850;2022-07-24T02:51:19;12.70;;;11.18;;
54545;SDS011;40444;45.184;9.850;2022-07-24T02:53:47;11.75;;;10.65;;
54545;SDS011;40444;45.184;9.850;2022-07-24T02:56:15;13.35;;;12.05;;
54545;SDS011;40444;45.184;9.850;2022-07-24T02:58:44;13.63;;;12.30;;
54545;SDS011;40444;45.184;9.850;2022-07-24T03:01:12;13.23;;;11.85;;
54545;SDS011;40444;45.184;9.850;2022-07-24T03:03:41;13.18;;;11.98;;
54545;SDS011;40444;45.184;9.850;2022-07-24T03:06:09;14.57;;;12.80;;
54545;SDS011;40444;45.184;9.850;2022-07-24T03:08:37;13.23;;;12.02;;
54545;SDS011;40444;45.184;9.850;2022-07-24T03:11:06;14.13;;;12.80;;
54545;SDS011;40444;45.184;9.850;2022-07-24T03:13:35;12.75;;;11.55;;
54545;SDS011;40444;45.184;9.850;2022-07-24T03:16:03;14.27;;;12.85;;
54545;SDS011;40444;45.184;9.850;2022-07-24T03:18:32;13.45;;;12.15;;
54545;SDS011;40444;45.184;9.850;2022-07-24T03:21:01;13.52;;;12.07;;
54545;SDS011;40444;45.184;9.850;2022-07-24T03:23:30;13.48;;;12.18;;
54545;SDS011;40444;45.184;9.850;2022-07-24T03:25:58;13.45;;;12.10;;
54545;SDS011;40444;45.184;9.850;2022-07-24T03:28:27;13.73;;;12.40;;
54545;SDS011;40444;45.184;9.850;2022-07-24T03:30:55;13.75;;;12.15;;
54545;SDS011;40444;45.184;9.850;2022-07-24T03:33:24;15.25;;;13.38;;
54545;SDS011;40444;45.184;9.850;2022-07-24T03:35:53;15.95;;;14.40;;
54545;SDS011;40444;45.184;9.850;2022-07-24T03:38:22;15.57;;;14.18;;
54545;SDS011;40444;45.184;9.850;2022-07-24T03:40:51;15.75;;;14.30;;
54545;SDS011;40444;45.184;9.850;2022-07-24T03:43:19;16.95;;;15.27;;
54545;SDS011;40444;45.184;9.850;2022-07-24T03:45:48;15.63;;;14.18;;
54545;SDS011;40444;45.184;9.850;2022-07-24T03:48:17;16.55;;;14.90;;
54545;SDS011;40444;45.184;9.850;2022-07-24T03:50:46;17.30;;;15.73;;
54545;SDS011;40444;45.184;9.850;2022-07-24T03:53:14;16.02;;;14.65;;
54545;SDS011;40444;45.184;9.850;2022-07-24T03:55:43;17.77;;;16.08;;
54545;SDS011;40444;45.184;9.850;2022-07-24T03:58:12;17.95;;;16.13;;
54545;SDS011;40444;45.184;9.850;2022-07-24T04:00:41;16.48;;;15.10;;
54545;SDS011;40444;45.184;9.850;2022-07-24T04:03:09;17.00;;;15.27;;
54545;SDS011;40444;45.184;9.850;2022-07-24T04:05:37;16.70;;;14.98;;
54545;SDS011;40444;45.184;9.850;2022-07-24T04:08:17;16.38;;;14.88;;
54545;SDS011;40444;45.184;9.850;2022-07-24T04:10:46;16.25;;;13.60;;
54545;SDS011;40444;45.184;9.850;2022-07-24T04:13:16;15.80;;;13.35;;
54545;SDS011;40444;45.184;9.850;2022-07-24T04:15:44;15.32;;;13.73;;
54545;SDS011;40444;45.184;9.850;2022-07-24T04:18:13;14.73;;;13.38;;
54545;SDS011;40444;45.184;9.850;2022-07-24T04:20:42;20.38;;;14.88;;
54545;SDS011;40444;45.184;9.850;2022-07-24T04:23:10;14.32;;;12.93;;
54545;SDS011;40444;45.184;9.850;2022-07-24T04:25:39;15.98;;;14.57;;
54545;SDS011;40444;45.184;9.850;2022-07-24T04:28:07;17.50;;;15.77;;
54545;SDS011;40444;45.184;9.850;2022-07-24T04:30:36;16.75;;;15.15;;
54545;SDS011;40444;45.184;9.850;2022-07-24T04:33:05;17.08;;;15.52;;
54545;SDS011;40444;45.184;9.850;2022-07-24T04:35:34;17.50;;;15.85;;
54545;SDS011;40444;45.184;9.850;2022-07-24T04:38:02;19.73;;;17.23;;
54545;SDS011;40444;45.184;9.850;2022-07-24T04:40:31;17.75;;;15.95;;
54545;SDS011;40444;45.184;9.850;2022-07-24T04:42:59;18.13;;;16.48;;
54545;SDS011;40444;45.184;9.850;2022-07-24T04:45:28;17.58;;;15.57;;
54545;SDS011;40444;45.184;9.850;2022-07-24T04:48:02;17.48;;;15.25;;
54545;SDS011;40444;45.184;9.850;2022-07-24T04:50:30;16.92;;;15.23;;
54545;SDS011;40444;45.184;9.850;2022-07-24T04:52:59;17.13;;;15.38;;
54545;SDS011;40444;45.184;9.850;2022-07-24T04:55:27;16.98;;;15.35;;
54545;SDS011;40444;45.184;9.850;2022-07-24T04:57:56;17.15;;;15.43;;
54545;SDS011;40444;45.184;9.850;2022-07-24T05:00:25;16.95;;;15.15;;
54545;SDS011;40444;45.184;9.850;2022-07-24T05:02:53;17.95;;;16.25;;
54545;SDS011;40444;45.184;9.850;2022-07-24T05:05:21;18.02;;;16.33;;
54545;SDS011;40444;45.184;9.850;2022-07-24T05:07:50;18.00;;;16.13;;
54545;SDS011;40444;45.184;9.850;2022-07-24T05:10:19;18.17;;;16.48;;
54545;SDS011;40444;45.184;9.850;2022-07-24T05:12:48;17.65;;;15.85;;
54545;SDS011;40444;45.184;9.850;2022-07-24T05:15:16;20.10;;;18.15;;
54545;SDS011;40444;45.184;9.850;2022-07-24T05:17:45;18.70;;;16.95;;
54545;SDS011;40444;45.184;9.850;2022-07-24T05:20:15;19.90;;;17.38;;
54545;SDS011;40444;45.184;9.850;2022-07-24T05:22:44;18.67;;;16.95;;
54545;SDS011;40444;45.184;9.850;2022-07-24T05:25:12;18.90;;;17.25;;
54545;SDS011;40444;45.184;9.850;2022-07-24T05:27:41;19.70;;;17.55;;
54545;SDS011;40444;45.184;9.850;2022-07-24T05:30:10;26.55;;;18.40;;
54545;SDS011;40444;45.184;9.850;2022-07-24T05:32:39;21.42;;;19.27;;
54545;SDS011;40444;45.184;9.850;2022-07-24T05:35:08;22.08;;;18.38;;
54545;SDS011;40444;45.184;9.850;2022-07-24T05:37:36;21.55;;;16.90;;
54545;SDS011;40444;45.184;9.850;2022-07-24T05:40:05;24.50;;;19.30;;
54545;SDS011;40444;45.184;9.850;2022-07-24T05:42:34;22.98;;;17.50;;
54545;SDS011;40444;45.184;9.850;2022-07-24T05:45:03;18.63;;;16.73;;
54545;SDS011;40444;45.184;9.850;2022-07-24T05:47:36;19.02;;;16.88;;
54545;SDS011;40444;45.184;9.850;2022-07-24T05:50:06;17.67;;;15.98;;
54545;SDS011;40444;45.184;9.850;2022-07-24T05:52:36;15.48;;;13.85;;
54545;SDS011;40444;45.184;9.850;2022-07-24T05:55:06;15.57;;;14.10;;
54545;SDS011;40444;45.184;9.850;2022-07-24T05:57:46;19.35;;;14.48;;
54545;SDS011;40444;45.184;9.850;2022-07-24T06:00:15;16.13;;;13.88;;
